This is the latest recevied weather packets stored in our database for station/object DO6GZ-WX. If no packets are shown the sender has not sent any weather packets the latest 10 day(s).
| Time | Temp. | Humidity | Pressure | Rain* | Wind** | Luminosity | Snow |
|---|---|---|---|---|---|---|---|
| 1777821649 | 23.33° C | 41% | 1011.4 hPa | 0 mm | - | - | - |
| 1777821022 | 23.89° C | 40% | 1011.3 hPa | 0 mm | - | - | - |
| 1777820394 | 23.89° C | 41% | 1011.4 hPa | 0 mm | - | - | - |
| 1777819767 | 23.89° C | 39% | 1011.3 hPa | 0 mm | - | - | - |
| 1777819139 | 23.89° C | 39% | 1011.3 hPa | 0 mm | - | - | - |
| 1777818512 | 23.89° C | 38% | 1011.4 hPa | 0 mm | - | - | - |
| 1777817884 | 23.89° C | 39% | 1011.4 hPa | 0 mm | - | - | - |
| 1777817256 | 24.44° C | 39% | 1011.4 hPa | 0 mm | - | - | - |
| 1777816629 | 23.89° C | 38% | 1011.6 hPa | 0 mm | - | - | - |
| 1777816003 | 23.33° C | 38% | 1011.8 hPa | 0 mm | - | - | - |
| 1777815374 | 23.33° C | 40% | 1011.9 hPa | 0 mm | - | - | - |
| 1777814746 | 23.89° C | 40% | 1012 hPa | 0 mm | - | - | - |
| 1777814119 | 23.89° C | 40% | 1012 hPa | 0 mm | - | - | - |
| 1777813491 | 22.78° C | 41% | 1012.3 hPa | 0 mm | - | - | - |
| 1777812864 | 22.78° C | 42% | 1012.3 hPa | 0 mm | - | - | - |
| 1777812236 | 23.33° C | 41% | 1012.4 hPa | 0 mm | - | - | - |
| 1777811609 | 23.33° C | 44% | 1012.5 hPa | 0 mm | - | - | - |
| 1777810981 | 23.33° C | 42% | 1012.6 hPa | 0 mm | - | - | - |
| 1777810354 | 23.33° C | 43% | 1012.5 hPa | 0 mm | - | - | - |
| 1777809726 | 24.44° C | 38% | 1012.5 hPa | 0 mm | - | - | - |
| 1777809099 | 23.89° C | 35% | 1012.6 hPa | 0 mm | - | - | - |
| 1777808471 | 24.44° C | 36% | 1012.6 hPa | 0 mm | - | - | - |
| 1777807843 | 24.44° C | 36% | 1012.7 hPa | 0 mm | - | - | - |
| 1777807216 | 23.89° C | 34% | 1012.7 hPa | 0 mm | - | - | - |
| 1777806588 | 23.89° C | 35% | 1012.9 hPa | 0 mm | - | - | - |
* Rain latest hour (hover to see other rain measurements)
** Current wind speed in m/s (hover to see current wind gust speed)